Time;durP1;ratioP1;P1;durP2;ratioP2;P2;SDS_P1;SDS_P2;PMS_P1;PMS_P2;Temp;Humidity;BMP_temperature;BMP_pressure;BME280_temperature;BME280_humidity;BME280_pressure;Samples;Min_cycle;Max_cycle;Signal;HPM_P1;HPM_P2
2021/03/01 00:00:35;;;;;;;;;;;20.60;39.00;;;;;;500490;237;931;-73
2021/03/01 00:02:37;;;;;;;;;;;20.50;39.00;;;;;;500453;237;1036;-72
2021/03/01 00:04:38;;;;;;;;;;;20.50;39.10;;;;;;500373;237;960;-72
2021/03/01 00:06:39;;;;;;;;;;;20.50;39.10;;;;;;500444;237;962;-74
2021/03/01 00:08:40;;;;;;;;;;;20.50;39.10;;;;;;500430;237;965;-73
2021/03/01 00:10:42;;;;;;;;;;;20.50;38.60;;;;;;500525;237;1077;-73
2021/03/01 00:12:43;;;;;;;;;;;20.50;39.00;;;;;;500540;237;1523;-73
2021/03/01 00:14:45;;;;;;;;;;;20.50;39.10;;;;;;500410;237;1119;-73
2021/03/01 00:16:46;;;;;;;;;;;20.50;39.10;;;;;;500399;237;2179;-73
2021/03/01 00:18:47;;;;;;;;;;;20.50;39.10;;;;;;500576;237;1052;-73
2021/03/01 00:20:48;;;;;;;;;;;20.50;39.20;;;;;;500530;237;939;-73
2021/03/01 00:22:50;;;;;;;;;;;20.50;39.30;;;;;;500432;237;1233;-73
2021/03/01 00:24:51;;;;;;;;;;;20.40;39.20;;;;;;500464;237;930;-73
2021/03/01 00:26:52;;;;;;;;;;;20.40;39.20;;;;;;500504;237;1124;-73
2021/03/01 00:28:54;;;;;;;;;;;20.50;39.20;;;;;;500453;237;1112;-73
2021/03/01 00:30:55;;;;;;;;;;;20.50;39.20;;;;;;500457;237;915;-73
2021/03/01 00:32:56;;;;;;;;;;;20.50;39.10;;;;;;500424;237;1164;-73
2021/03/01 00:34:58;;;;;;;;;;;20.50;39.20;;;;;;500471;237;949;-73
2021/03/01 00:36:59;;;;;;;;;;;20.40;39.30;;;;;;500445;237;2183;-73
2021/03/01 00:39:00;;;;;;;;;;;20.40;39.30;;;;;;500490;237;967;-73
2021/03/01 00:41:02;;;;;;;;;;;20.40;39.20;;;;;;500387;237;1085;-73
2021/03/01 00:43:03;;;;;;;;;;;20.50;39.20;;;;;;500419;237;978;-72
2021/03/01 00:45:04;;;;;;;;;;;20.50;39.20;;;;;;500358;237;1103;-73
2021/03/01 00:47:05;;;;;;;;;;;20.40;39.20;;;;;;500298;237;1109;-73
2021/03/01 00:49:07;;;;;;;;;;;20.50;38.80;;;;;;500466;237;1024;-72
2021/03/01 00:51:08;;;;;;;;;;;20.50;39.20;;;;;;500420;237;1001;-73
2021/03/01 00:53:09;;;;;;;;;;;20.50;39.20;;;;;;500459;237;1028;-73
2021/03/01 00:55:10;;;;;;;;;;;20.40;39.30;;;;;;500404;237;959;-73
2021/03/01 00:57:12;;;;;;;;;;;20.40;39.40;;;;;;500433;237;2188;-73
2021/03/01 00:59:13;;;;;;;;;;;20.40;39.40;;;;;;500542;237;1124;-73
2021/03/01 01:01:14;;;;;;;;;;;20.40;39.40;;;;;;500475;237;1130;-73
2021/03/01 01:03:16;;;;;;;;;;;20.50;39.40;;;;;;500354;237;1200;-73
2021/03/01 01:05:17;;;;;;;;;;;20.40;39.40;;;;;;500361;237;974;-73
2021/03/01 01:07:19;;;;;;;;;;;20.40;39.40;;;;;;500426;237;1057;-72
2021/03/01 01:09:20;;;;;;;;;;;20.50;39.40;;;;;;500443;237;1127;-73
2021/03/01 01:11:21;;;;;;;;;;;20.40;39.40;;;;;;500429;237;1040;-73
2021/03/01 01:13:23;;;;;;;;;;;20.40;39.40;;;;;;500346;237;1207;-73
2021/03/01 01:15:24;;;;;;;;;;;20.40;39.50;;;;;;500555;237;1152;-73
2021/03/01 01:17:25;;;;;;;;;;;20.40;39.60;;;;;;500388;237;2176;-73
2021/03/01 01:19:26;;;;;;;;;;;20.40;39.50;;;;;;500457;237;1043;-73
2021/03/01 01:21:28;;;;;;;;;;;20.40;39.50;;;;;;500437;237;954;-72
2021/03/01 01:23:29;;;;;;;;;;;20.50;39.40;;;;;;500385;237;1228;-72
2021/03/01 01:25:30;;;;;;;;;;;20.50;39.20;;;;;;500346;237;953;-73
2021/03/01 01:27:31;;;;;;;;;;;20.50;39.40;;;;;;500430;237;1227;-73
2021/03/01 01:29:33;;;;;;;;;;;20.50;39.60;;;;;;500467;237;1126;-73
2021/03/01 01:31:34;;;;;;;;;;;20.40;39.60;;;;;;500499;237;1070;-73
2021/03/01 01:33:35;;;;;;;;;;;20.50;39.60;;;;;;500335;237;1220;-73
2021/03/01 01:35:37;;;;;;;;;;;20.40;39.60;;;;;;500331;237;1109;-73
2021/03/01 01:37:38;;;;;;;;;;;20.50;39.60;;;;;;500311;237;2135;-73
2021/03/01 01:39:39;;;;;;;;;;;20.50;39.50;;;;;;500357;237;964;-73
2021/03/01 01:41:40;;;;;;;;;;;20.50;39.50;;;;;;500197;237;1152;-73
2021/03/01 01:43:42;;;;;;;;;;;20.50;39.50;;;;;;500326;237;1042;-72
2021/03/01 01:45:43;;;;;;;;;;;20.40;39.60;;;;;;500297;237;1182;-73
2021/03/01 01:47:44;;;;;;;;;;;20.50;39.50;;;;;;500415;237;1024;-72
2021/03/01 01:49:45;;;;;;;;;;;20.40;39.50;;;;;;500436;237;959;-73
2021/03/01 01:51:47;;;;;;;;;;;20.40;39.50;;;;;;500379;237;976;-73
2021/03/01 01:53:48;;;;;;;;;;;20.40;39.50;;;;;;500424;237;960;-73
2021/03/01 01:55:49;;;;;;;;;;;20.40;39.50;;;;;;500447;237;944;-73
2021/03/01 01:57:51;;;;;;;;;;;20.40;39.50;;;;;;500421;237;2176;-72
2021/03/01 01:59:52;;;;;;;;;;;20.40;39.20;;;;;;500485;237;1367;-72
2021/03/01 02:01:53;;;;;;;;;;;20.30;39.50;;;;;;500381;237;1052;-73
2021/03/01 02:03:54;;;;;;;;;;;20.30;39.60;;;;;;500534;237;1046;-73
2021/03/01 02:05:56;;;;;;;;;;;20.30;39.70;;;;;;500415;237;933;-73
2021/03/01 02:07:57;;;;;;;;;;;20.30;39.60;;;;;;500492;237;984;-73
2021/03/01 02:09:58;;;;;;;;;;;20.30;39.60;;;;;;500417;237;1073;-73
2021/03/01 02:12:00;;;;;;;;;;;20.30;39.40;;;;;;500461;237;1070;-72
2021/03/01 02:14:01;;;;;;;;;;;20.30;39.50;;;;;;500460;237;1539;-73
2021/03/01 02:16:02;;;;;;;;;;;20.20;39.60;;;;;;500394;237;1103;-73
2021/03/01 02:18:03;;;;;;;;;;;20.20;39.60;;;;;;500448;237;2140;-72
2021/03/01 02:20:08;;;;;;;;;;;20.20;39.60;;;;;;500452;237;1213;-72
2021/03/01 02:22:06;;;;;;;;;;;20.20;39.70;;;;;;500390;237;1385;-73
2021/03/01 02:24:07;;;;;;;;;;;20.20;39.60;;;;;;500436;237;941;-73
2021/03/01 02:26:09;;;;;;;;;;;20.10;39.60;;;;;;500386;237;1292;-72
2021/03/01 02:28:10;;;;;;;;;;;20.20;39.60;;;;;;500387;237;976;-73
2021/03/01 02:30:11;;;;;;;;;;;20.10;39.50;;;;;;500355;237;1308;-73
2021/03/01 02:32:13;;;;;;;;;;;20.10;39.70;;;;;;500429;237;1087;-73
2021/03/01 02:34:14;;;;;;;;;;;20.10;39.40;;;;;;500437;237;943;-73
2021/03/01 02:36:15;;;;;;;;;;;20.00;39.50;;;;;;500402;237;1249;-73
2021/03/01 02:38:17;;;;;;;;;;;20.00;39.70;;;;;;500363;237;2175;-73
2021/03/01 02:40:18;;;;;;;;;;;20.10;39.60;;;;;;500455;237;942;-72
2021/03/01 02:42:19;;;;;;;;;;;20.10;39.70;;;;;;500360;237;1255;-73
2021/03/01 02:44:20;;;;;;;;;;;20.00;39.80;;;;;;500471;237;996;-73
2021/03/01 02:46:22;;;;;;;;;;;20.00;39.80;;;;;;500437;237;1163;-72
2021/03/01 02:48:23;;;;;;;;;;;20.00;39.80;;;;;;500359;237;1072;-72
2021/03/01 02:50:24;;;;;;;;;;;20.00;39.80;;;;;;500391;237;986;-72
2021/03/01 02:52:26;;;;;;;;;;;19.90;39.80;;;;;;500413;237;1207;-72
2021/03/01 02:54:27;;;;;;;;;;;20.00;39.80;;;;;;500487;237;935;-72
2021/03/01 02:56:28;;;;;;;;;;;20.00;39.80;;;;;;500406;237;1394;-73
2021/03/01 02:58:29;;;;;;;;;;;20.00;39.90;;;;;;500392;237;2196;-73
2021/03/01 03:00:31;;;;;;;;;;;20.00;39.30;;;;;;500494;237;1184;-72
2021/03/01 03:02:33;;;;;;;;;;;19.90;39.60;;;;;;500340;237;1136;-72
2021/03/01 03:04:33;;;;;;;;;;;19.90;39.90;;;;;;500476;237;1435;-72
2021/03/01 03:06:34;;;;;;;;;;;19.80;40.00;;;;;;500395;237;1067;-73
2021/03/01 03:08:36;;;;;;;;;;;19.80;40.00;;;;;;500417;237;956;-73
2021/03/01 03:10:37;;;;;;;;;;;19.90;40.00;;;;;;500448;237;1012;-73
2021/03/01 03:12:38;;;;;;;;;;;19.90;39.90;;;;;;500493;237;924;-73
2021/03/01 03:14:40;;;;;;;;;;;19.90;40.00;;;;;;500517;237;1072;-73
2021/03/01 03:16:41;;;;;;;;;;;19.90;40.00;;;;;;500459;237;1123;-73
2021/03/01 03:18:42;;;;;;;;;;;19.90;40.00;;;;;;500397;237;2195;-72
2021/03/01 03:20:43;;;;;;;;;;;19.80;40.00;;;;;;500422;237;1216;-73
2021/03/01 03:22:45;;;;;;;;;;;19.80;40.00;;;;;;500396;237;951;-72
2021/03/01 03:24:46;;;;;;;;;;;19.80;40.20;;;;;;500478;237;1030;-72
2021/03/01 03:26:47;;;;;;;;;;;19.80;40.10;;;;;;500412;237;985;-73
2021/03/01 03:28:48;;;;;;;;;;;19.80;40.20;;;;;;500462;237;1105;-73
2021/03/01 03:30:50;;;;;;;;;;;19.80;40.10;;;;;;500461;237;1317;-73
2021/03/01 03:32:51;;;;;;;;;;;19.80;40.20;;;;;;500491;237;962;-73
2021/03/01 03:34:52;;;;;;;;;;;19.80;40.10;;;;;;500482;237;943;-73
2021/03/01 03:36:54;;;;;;;;;;;19.80;40.20;;;;;;500418;237;1019;-72
2021/03/01 03:38:55;;;;;;;;;;;19.80;40.20;;;;;;500421;237;2175;-73
2021/03/01 03:40:56;;;;;;;;;;;19.90;39.90;;;;;;500350;237;1125;-73
2021/03/01 03:42:57;;;;;;;;;;;19.80;40.10;;;;;;500380;237;1224;-73
2021/03/01 03:44:59;;;;;;;;;;;19.80;40.30;;;;;;500347;237;930;-73
2021/03/01 03:47:00;;;;;;;;;;;19.80;40.30;;;;;;500373;237;1108;-73
2021/03/01 03:49:01;;;;;;;;;;;19.80;40.30;;;;;;500435;237;1087;-73
2021/03/01 03:51:03;;;;;;;;;;;19.70;40.40;;;;;;500423;237;1078;-73
2021/03/01 03:53:04;;;;;;;;;;;19.80;40.40;;;;;;500414;237;1014;-73
2021/03/01 03:55:05;;;;;;;;;;;19.70;40.40;;;;;;500426;237;1113;-73
2021/03/01 03:57:06;;;;;;;;;;;19.70;40.40;;;;;;500318;237;1114;-73
2021/03/01 03:59:08;;;;;;;;;;;19.70;40.50;;;;;;500493;237;2119;-73
2021/03/01 04:01:09;;;;;;;;;;;19.70;40.40;;;;;;500357;237;1133;-73
2021/03/01 04:03:10;;;;;;;;;;;19.60;40.40;;;;;;500452;237;1029;-73
2021/03/01 04:05:14;;;;;;;;;;;19.70;40.50;;;;;;500470;237;1254;-73
2021/03/01 04:07:14;;;;;;;;;;;19.70;40.50;;;;;;500484;237;1313;-73
2021/03/01 04:09:15;;;;;;;;;;;19.70;40.40;;;;;;500448;237;1039;-73
2021/03/01 04:11:17;;;;;;;;;;;19.70;40.40;;;;;;500417;237;990;-73
2021/03/01 04:13:18;;;;;;;;;;;19.70;40.40;;;;;;500468;237;976;-72
2021/03/01 04:15:19;;;;;;;;;;;19.70;40.50;;;;;;500441;237;940;-73
2021/03/01 04:17:20;;;;;;;;;;;19.60;40.40;;;;;;500465;234;1296;-73
2021/03/01 04:19:22;;;;;;;;;;;19.70;40.50;;;;;;500479;237;2180;-73
2021/03/01 04:21:23;;;;;;;;;;;19.60;40.50;;;;;;500443;237;1125;-72
2021/03/01 04:23:24;;;;;;;;;;;19.60;40.60;;;;;;500458;237;989;-73
2021/03/01 04:25:26;;;;;;;;;;;19.60;40.70;;;;;;500364;237;1096;-72
2021/03/01 04:27:27;;;;;;;;;;;19.50;40.80;;;;;;500472;237;1215;-72
2021/03/01 04:29:28;;;;;;;;;;;19.50;40.70;;;;;;500424;237;1173;-72
2021/03/01 04:31:30;;;;;;;;;;;19.50;40.80;;;;;;500430;237;1196;-73
2021/03/01 04:33:31;;;;;;;;;;;19.60;40.60;;;;;;500443;237;1129;-73
2021/03/01 04:35:32;;;;;;;;;;;19.60;40.60;;;;;;500453;237;974;-73
2021/03/01 04:37:33;;;;;;;;;;;19.50;40.50;;;;;;500317;237;1222;-73
2021/03/01 04:39:35;;;;;;;;;;;19.60;40.60;;;;;;500387;237;2168;-73
2021/03/01 04:41:36;;;;;;;;;;;19.50;40.60;;;;;;500308;237;1042;-73
2021/03/01 04:43:37;;;;;;;;;;;19.50;40.70;;;;;;500462;237;968;-73
2021/03/01 04:45:39;;;;;;;;;;;19.50;40.70;;;;;;500416;237;1048;-72
2021/03/01 04:47:40;;;;;;;;;;;19.40;40.70;;;;;;500441;237;1137;-72
2021/03/01 04:49:41;;;;;;;;;;;19.40;40.80;;;;;;500429;237;1123;-72
2021/03/01 04:51:42;;;;;;;;;;;19.30;41.00;;;;;;500400;237;1229;-72
2021/03/01 04:53:44;;;;;;;;;;;19.40;40.90;;;;;;500451;237;992;-73
2021/03/01 04:55:45;;;;;;;;;;;19.50;40.90;;;;;;500410;237;973;-72
2021/03/01 04:57:46;;;;;;;;;;;19.40;40.80;;;;;;500377;237;1068;-72
2021/03/01 04:59:48;;;;;;;;;;;19.40;40.80;;;;;;500359;237;2232;-73
2021/03/01 05:01:49;;;;;;;;;;;19.40;40.80;;;;;;500458;237;1253;-73
2021/03/01 05:03:51;;;;;;;;;;;19.50;40.70;;;;;;500460;237;1266;-73
2021/03/01 05:05:51;;;;;;;;;;;19.40;40.80;;;;;;500380;237;1309;-72
2021/03/01 05:07:53;;;;;;;;;;;19.40;40.90;;;;;;500389;237;924;-72
2021/03/01 05:09:54;;;;;;;;;;;19.40;40.90;;;;;;500362;237;988;-72
2021/03/01 05:11:55;;;;;;;;;;;19.30;41.00;;;;;;500278;237;1272;-72
2021/03/01 05:13:57;;;;;;;;;;;19.40;40.90;;;;;;500389;237;1050;-72
2021/03/01 05:15:58;;;;;;;;;;;19.40;40.90;;;;;;500282;237;1069;-73
2021/03/01 05:17:59;;;;;;;;;;;19.40;40.90;;;;;;500413;234;1311;-73
2021/03/01 05:20:00;;;;;;;;;;;19.40;40.90;;;;;;500356;237;2179;-73
2021/03/01 05:22:02;;;;;;;;;;;19.40;40.80;;;;;;500341;237;1048;-73
2021/03/01 05:24:03;;;;;;;;;;;19.40;40.50;;;;;;500335;237;981;-73
2021/03/01 05:26:04;;;;;;;;;;;19.40;41.00;;;;;;500389;237;1154;-73
2021/03/01 05:28:06;;;;;;;;;;;19.30;41.10;;;;;;500355;237;975;-73
2021/03/01 05:30:07;;;;;;;;;;;19.40;41.20;;;;;;500249;237;950;-73
2021/03/01 05:32:08;;;;;;;;;;;19.30;41.10;;;;;;500248;237;928;-73
2021/03/01 05:34:09;;;;;;;;;;;19.30;41.20;;;;;;500262;237;1129;-73
2021/03/01 05:36:11;;;;;;;;;;;19.30;41.10;;;;;;500089;237;1087;-72
2021/03/01 05:38:12;;;;;;;;;;;19.30;41.10;;;;;;500162;237;2147;-72
2021/03/01 05:40:13;;;;;;;;;;;19.30;41.00;;;;;;500198;237;1137;-72
2021/03/01 05:42:14;;;;;;;;;;;19.30;41.10;;;;;;500173;237;1216;-72
2021/03/01 05:44:16;;;;;;;;;;;19.30;41.00;;;;;;500161;237;978;-72
2021/03/01 05:46:17;;;;;;;;;;;19.30;41.20;;;;;;500125;237;1208;-72
2021/03/01 05:48:18;;;;;;;;;;;19.30;41.20;;;;;;500147;237;1045;-73
2021/03/01 05:50:20;;;;;;;;;;;19.20;41.30;;;;;;500112;237;1211;-73
2021/03/01 05:52:21;;;;;;;;;;;19.20;41.30;;;;;;500229;237;1101;-73
2021/03/01 05:54:22;;;;;;;;;;;19.30;41.20;;;;;;500201;237;1058;-73
2021/03/01 05:56:24;;;;;;;;;;;19.20;41.20;;;;;;500167;237;1197;-73
2021/03/01 05:58:25;;;;;;;;;;;19.20;41.20;;;;;;500138;237;2195;-73
2021/03/01 06:00:26;;;;;;;;;;;19.20;40.60;;;;;;500133;237;1121;-73
2021/03/01 06:02:28;;;;;;;;;;;19.20;41.20;;;;;;500087;237;1117;-73
2021/03/01 06:04:29;;;;;;;;;;;19.20;41.30;;;;;;500031;237;1088;-73
2021/03/01 06:06:30;;;;;;;;;;;19.20;41.40;;;;;;499964;237;1286;-73
2021/03/01 06:08:31;;;;;;;;;;;19.20;41.40;;;;;;500106;237;968;-73
2021/03/01 06:10:33;;;;;;;;;;;19.20;41.30;;;;;;500009;237;1180;-73
2021/03/01 06:12:34;;;;;;;;;;;19.20;41.30;;;;;;499952;237;1059;-73
2021/03/01 06:14:35;;;;;;;;;;;19.20;41.20;;;;;;500016;237;1044;-73
2021/03/01 06:16:36;;;;;;;;;;;19.20;41.20;;;;;;499934;237;1115;-72
2021/03/01 06:18:38;;;;;;;;;;;19.20;41.20;;;;;;500053;237;2187;-72
2021/03/01 06:20:39;;;;;;;;;;;19.20;41.20;;;;;;500142;237;954;-72
2021/03/01 06:22:40;;;;;;;;;;;19.30;41.20;;;;;;500188;237;1128;-72
2021/03/01 06:24:42;;;;;;;;;;;19.20;41.30;;;;;;499946;237;1045;-72
2021/03/01 06:26:43;;;;;;;;;;;19.00;41.60;;;;;;500006;237;1047;-73
2021/03/01 06:28:44;;;;;;;;;;;18.90;41.90;;;;;;500012;237;965;-73
2021/03/01 06:30:45;;;;;;;;;;;18.80;42.00;;;;;;500087;237;1017;-73
2021/03/01 06:32:47;;;;;;;;;;;18.80;42.00;;;;;;500079;237;1062;-73
2021/03/01 06:34:48;;;;;;;;;;;18.80;41.90;;;;;;500019;237;1242;-73
2021/03/01 06:36:49;;;;;;;;;;;18.80;42.20;;;;;;499928;237;992;-73
2021/03/01 06:38:51;;;;;;;;;;;18.80;42.20;;;;;;499855;237;2181;-73
2021/03/01 06:40:52;;;;;;;;;;;18.80;42.30;;;;;;499713;237;1086;-73
2021/03/01 06:42:53;;;;;;;;;;;18.70;42.40;;;;;;499765;237;1007;-73
2021/03/01 06:44:54;;;;;;;;;;;18.70;42.40;;;;;;499759;237;951;-73
2021/03/01 06:46:56;;;;;;;;;;;18.70;42.30;;;;;;499755;237;1071;-73
2021/03/01 06:48:57;;;;;;;;;;;18.70;42.30;;;;;;499935;237;1246;-73
2021/03/01 06:50:58;;;;;;;;;;;18.70;42.20;;;;;;499930;237;1200;-73
2021/03/01 06:52:59;;;;;;;;;;;18.70;42.40;;;;;;499976;237;1027;-73
2021/03/01 06:55:01;;;;;;;;;;;18.80;42.20;;;;;;499964;237;1008;-73
2021/03/01 06:57:02;;;;;;;;;;;18.80;42.30;;;;;;499882;237;1343;-73
2021/03/01 06:59:03;;;;;;;;;;;18.80;42.20;;;;;;500013;237;2175;-73
2021/03/01 07:01:05;;;;;;;;;;;18.90;42.10;;;;;;499768;237;1208;-72
2021/03/01 07:03:06;;;;;;;;;;;18.90;42.10;;;;;;499825;237;1210;-73
2021/03/01 07:05:07;;;;;;;;;;;18.80;42.00;;;;;;499760;237;1204;-73
2021/03/01 07:07:09;;;;;;;;;;;18.80;42.10;;;;;;499632;237;1093;-73
2021/03/01 07:09:10;;;;;;;;;;;18.80;42.10;;;;;;499769;237;1122;-73
2021/03/01 07:11:11;;;;;;;;;;;18.80;42.20;;;;;;499623;237;1102;-73
2021/03/01 07:13:13;;;;;;;;;;;18.80;42.00;;;;;;499843;237;1025;-72
2021/03/01 07:15:14;;;;;;;;;;;18.90;42.10;;;;;;499755;237;1199;-73
2021/03/01 07:17:15;;;;;;;;;;;18.90;42.10;;;;;;499952;237;1065;-73
2021/03/01 07:19:17;;;;;;;;;;;18.90;42.00;;;;;;499716;234;2180;-73
2021/03/01 07:21:18;;;;;;;;;;;19.00;41.80;;;;;;499575;237;1161;-72
2021/03/01 07:23:19;;;;;;;;;;;19.00;41.80;;;;;;499733;237;967;-72
2021/03/01 07:25:21;;;;;;;;;;;19.00;41.80;;;;;;499769;237;1057;-73
2021/03/01 07:27:22;;;;;;;;;;;18.90;41.70;;;;;;499746;237;1055;-73
2021/03/01 07:29:23;;;;;;;;;;;19.00;41.10;;;;;;499733;237;1084;-72
2021/03/01 07:31:25;;;;;;;;;;;19.00;41.70;;;;;;499717;237;1224;-72
2021/03/01 07:33:26;;;;;;;;;;;19.00;41.70;;;;;;499669;237;1168;-72
2021/03/01 07:35:27;;;;;;;;;;;18.90;41.70;;;;;;499822;237;1155;-72
2021/03/01 07:37:29;;;;;;;;;;;19.00;41.70;;;;;;499807;237;1110;-73
2021/03/01 07:39:31;;;;;;;;;;;18.90;41.70;;;;;;499691;237;2172;-72
2021/03/01 07:41:31;;;;;;;;;;;19.10;41.50;;;;;;499730;237;1338;-72
2021/03/01 07:43:32;;;;;;;;;;;19.10;41.50;;;;;;499623;237;1073;-72
2021/03/01 07:45:34;;;;;;;;;;;19.10;41.40;;;;;;499647;237;1223;-73
2021/03/01 07:47:35;;;;;;;;;;;19.10;41.50;;;;;;499677;237;1284;-73
2021/03/01 07:49:36;;;;;;;;;;;19.10;41.40;;;;;;499416;237;1133;-72
2021/03/01 07:51:37;;;;;;;;;;;19.10;41.50;;;;;;499517;237;1169;-72
2021/03/01 07:53:39;;;;;;;;;;;19.10;41.60;;;;;;499447;237;975;-72
2021/03/01 07:55:40;;;;;;;;;;;19.20;41.50;;;;;;499421;237;1064;-72
2021/03/01 07:57:41;;;;;;;;;;;19.20;41.50;;;;;;499520;237;1270;-72
2021/03/01 07:59:43;;;;;;;;;;;19.20;41.50;;;;;;499702;237;2145;-73
2021/03/01 08:01:44;;;;;;;;;;;19.20;41.50;;;;;;499646;237;1178;-72
2021/03/01 08:03:45;;;;;;;;;;;19.30;41.50;;;;;;499596;237;1092;-73
2021/03/01 08:05:46;;;;;;;;;;;19.20;41.40;;;;;;499456;237;1138;-73
2021/03/01 08:07:48;;;;;;;;;;;19.30;41.40;;;;;;499572;237;1027;-72
2021/03/01 08:09:49;;;;;;;;;;;19.30;41.30;;;;;;499417;237;1068;-72
2021/03/01 08:11:50;;;;;;;;;;;19.40;41.00;;;;;;499308;237;1121;-72
2021/03/01 08:13:52;;;;;;;;;;;19.30;41.50;;;;;;499639;237;1028;-72
2021/03/01 08:15:53;;;;;;;;;;;19.30;41.50;;;;;;499546;237;1111;-72
2021/03/01 08:17:55;;;;;;;;;;;19.30;41.50;;;;;;499642;237;1326;-72
2021/03/01 08:19:55;;;;;;;;;;;19.30;41.50;;;;;;499598;237;2148;-72
2021/03/01 08:21:57;;;;;;;;;;;19.40;41.30;;;;;;499490;237;1093;-72
2021/03/01 08:23:58;;;;;;;;;;;19.40;41.30;;;;;;499565;237;1059;-72
2021/03/01 08:25:59;;;;;;;;;;;19.40;41.20;;;;;;499651;237;1046;-72
2021/03/01 08:28:00;;;;;;;;;;;19.50;41.20;;;;;;499726;237;1024;-72
2021/03/01 08:30:02;;;;;;;;;;;19.40;41.20;;;;;;499653;237;1049;-72
2021/03/01 08:32:03;;;;;;;;;;;19.50;41.20;;;;;;499702;237;1051;-72
2021/03/01 08:34:04;;;;;;;;;;;19.50;41.30;;;;;;499463;237;1163;-72
2021/03/01 08:36:06;;;;;;;;;;;19.60;41.20;;;;;;499693;237;1119;-72
2021/03/01 08:38:07;;;;;;;;;;;19.50;41.20;;;;;;499734;237;1147;-72
2021/03/01 08:40:08;;;;;;;;;;;19.60;41.20;;;;;;499698;237;2195;-72
2021/03/01 08:42:09;;;;;;;;;;;19.60;41.20;;;;;;499588;237;1220;-72
2021/03/01 08:44:11;;;;;;;;;;;19.60;41.30;;;;;;499736;237;1087;-72
2021/03/01 08:46:12;;;;;;;;;;;19.60;41.30;;;;;;499567;237;1109;-73
2021/03/01 08:48:13;;;;;;;;;;;19.60;41.20;;;;;;499505;237;1003;-72
2021/03/01 08:50:14;;;;;;;;;;;19.70;40.90;;;;;;499553;237;1157;-72
2021/03/01 08:52:16;;;;;;;;;;;19.70;41.10;;;;;;499599;237;1244;-72
2021/03/01 08:54:17;;;;;;;;;;;19.70;41.00;;;;;;499544;237;967;-72
2021/03/01 08:56:18;;;;;;;;;;;19.70;41.00;;;;;;499563;237;1142;-72
2021/03/01 08:58:20;;;;;;;;;;;19.70;41.00;;;;;;499607;237;1029;-72
2021/03/01 09:00:21;;;;;;;;;;;19.70;41.10;;;;;;499653;237;2184;-72
2021/03/01 09:02:22;;;;;;;;;;;19.80;41.10;;;;;;499715;237;1096;-72
2021/03/01 09:04:24;;;;;;;;;;;19.80;41.10;;;;;;499530;237;1159;-72
2021/03/01 09:06:25;;;;;;;;;;;19.80;41.10;;;;;;499527;237;1334;-72
2021/03/01 09:08:26;;;;;;;;;;;19.90;40.90;;;;;;499627;237;1170;-72
2021/03/01 09:10:28;;;;;;;;;;;19.80;40.80;;;;;;499679;237;960;-72
2021/03/01 09:12:29;;;;;;;;;;;19.90;40.70;;;;;;499684;237;1136;-72
2021/03/01 09:14:32;;;;;;;;;;;19.90;40.80;;;;;;499316;237;1025;-72
2021/03/01 09:16:31;;;;;;;;;;;20.00;40.60;;;;;;499541;237;1492;-73
2021/03/01 09:18:33;;;;;;;;;;;20.00;40.50;;;;;;499473;237;1037;-72
2021/03/01 09:20:34;;;;;;;;;;;20.10;40.30;;;;;;499594;237;2173;-72
2021/03/01 09:22:35;;;;;;;;;;;20.10;40.20;;;;;;499666;237;1118;-72
2021/03/01 09:24:36;;;;;;;;;;;20.10;39.90;;;;;;499561;237;1040;-72
2021/03/01 09:26:38;;;;;;;;;;;20.20;40.00;;;;;;499661;237;1234;-72
2021/03/01 09:28:39;;;;;;;;;;;20.20;40.10;;;;;;499512;237;1092;-72
2021/03/01 09:30:41;;;;;;;;;;;20.20;40.10;;;;;;499399;237;1112;-72
2021/03/01 09:32:42;;;;;;;;;;;20.20;40.10;;;;;;499526;237;1181;-72
2021/03/01 09:34:43;;;;;;;;;;;20.20;40.10;;;;;;499567;237;991;-72
2021/03/01 09:36:47;;;;;;;;;;;20.20;40.10;;;;;;499667;237;1200;-72
2021/03/01 09:38:46;;;;;;;;;;;20.30;40.10;;;;;;499650;237;1501;-72
2021/03/01 09:40:47;;;;;;;;;;;20.30;39.80;;;;;;499478;237;2135;-72
2021/03/01 09:42:49;;;;;;;;;;;20.40;39.30;;;;;;499445;237;1033;-72
2021/03/01 09:44:50;;;;;;;;;;;20.40;39.00;;;;;;499383;237;1122;-72
2021/03/01 09:46:51;;;;;;;;;;;20.40;38.60;;;;;;499486;237;1051;-72
2021/03/01 09:48:52;;;;;;;;;;;20.40;38.30;;;;;;499418;237;1044;-72
2021/03/01 09:50:54;;;;;;;;;;;20.40;37.90;;;;;;499555;237;1156;-72
2021/03/01 09:52:55;;;;;;;;;;;20.40;37.70;;;;;;499500;237;1015;-72
2021/03/01 09:54:56;;;;;;;;;;;20.40;37.40;;;;;;499457;237;1117;-72
2021/03/01 09:56:58;;;;;;;;;;;20.50;37.10;;;;;;499446;237;1054;-72
2021/03/01 09:58:59;;;;;;;;;;;20.50;36.90;;;;;;499440;237;1391;-73
2021/03/01 10:01:00;;;;;;;;;;;20.50;36.70;;;;;;499172;237;2171;-72
2021/03/01 10:03:01;;;;;;;;;;;20.60;36.30;;;;;;499316;237;1048;-72
2021/03/01 10:05:03;;;;;;;;;;;20.60;36.20;;;;;;499472;237;1025;-72
2021/03/01 10:07:04;;;;;;;;;;;20.60;35.90;;;;;;499524;237;1160;-72
2021/03/01 10:09:05;;;;;;;;;;;20.70;35.80;;;;;;499438;237;1082;-72
2021/03/01 10:11:06;;;;;;;;;;;20.70;35.60;;;;;;499316;237;1060;-72
2021/03/01 10:13:08;;;;;;;;;;;20.70;35.40;;;;;;499113;237;1031;-72
2021/03/01 10:15:09;;;;;;;;;;;20.80;35.20;;;;;;499339;237;987;-72
2021/03/01 10:17:11;;;;;;;;;;;20.80;35.10;;;;;;499234;237;959;-72
2021/03/01 10:19:12;;;;;;;;;;;20.80;34.90;;;;;;499256;237;1071;-72
2021/03/01 10:21:15;;;;;;;;;;;20.90;34.70;;;;;;499197;237;2180;-73
2021/03/01 10:23:15;;;;;;;;;;;20.90;34.60;;;;;;499278;237;1297;-72
2021/03/01 10:25:16;;;;;;;;;;;21.00;35.80;;;;;;499226;237;1120;-73
2021/03/01 10:27:17;;;;;;;;;;;21.00;37.40;;;;;;499183;237;1561;-72
2021/03/01 10:29:18;;;;;;;;;;;21.10;38.20;;;;;;499108;237;1020;-72
2021/03/01 10:31:20;;;;;;;;;;;21.20;38.80;;;;;;499144;237;1738;-72
2021/03/01 10:33:21;;;;;;;;;;;21.20;39.10;;;;;;499037;237;1073;-72
2021/03/01 10:35:24;;;;;;;;;;;21.20;39.20;;;;;;499045;237;1078;-72
2021/03/01 10:37:25;;;;;;;;;;;21.20;39.10;;;;;;499067;237;1304;-72
2021/03/01 10:39:25;;;;;;;;;;;21.20;39.10;;;;;;499432;237;1400;-72
2021/03/01 10:41:27;;;;;;;;;;;21.30;39.20;;;;;;499400;237;2125;-72
2021/03/01 10:43:28;;;;;;;;;;;21.30;39.20;;;;;;499403;237;1063;-72
2021/03/01 10:45:29;;;;;;;;;;;21.40;38.30;;;;;;499424;237;1042;-72
2021/03/01 10:47:31;;;;;;;;;;;21.40;37.70;;;;;;499438;237;1034;-72
2021/03/01 10:49:32;;;;;;;;;;;21.50;37.20;;;;;;499314;237;1201;-72
2021/03/01 10:51:33;;;;;;;;;;;21.50;36.80;;;;;;499350;237;1075;-72
2021/03/01 10:53:34;;;;;;;;;;;21.50;36.40;;;;;;499297;237;1018;-72
2021/03/01 10:55:36;;;;;;;;;;;21.60;36.00;;;;;;499338;237;1062;-72
2021/03/01 10:57:37;;;;;;;;;;;21.60;35.70;;;;;;499315;237;1062;-72
2021/03/01 10:59:38;;;;;;;;;;;21.60;35.40;;;;;;499451;237;1039;-73
2021/03/01 11:01:40;;;;;;;;;;;21.70;35.10;;;;;;499337;237;2171;-72
2021/03/01 11:03:41;;;;;;;;;;;21.70;34.90;;;;;;499311;237;995;-72
2021/03/01 11:05:45;;;;;;;;;;;21.70;34.60;;;;;;499374;237;1294;-72
2021/03/01 11:07:44;;;;;;;;;;;21.70;34.20;;;;;;499344;237;1210;-72
2021/03/01 11:09:45;;;;;;;;;;;21.80;34.10;;;;;;499469;237;1060;-72
2021/03/01 11:11:46;;;;;;;;;;;21.80;33.70;;;;;;499497;237;1212;-72
2021/03/01 11:13:48;;;;;;;;;;;21.90;33.60;;;;;;499409;237;1024;-73
2021/03/01 11:15:49;;;;;;;;;;;21.90;33.40;;;;;;499156;237;1105;-72
2021/03/01 11:17:50;;;;;;;;;;;21.80;33.30;;;;;;499216;237;1086;-72
2021/03/01 11:19:52;;;;;;;;;;;21.80;33.30;;;;;;499229;237;1069;-72
2021/03/01 11:21:53;;;;;;;;;;;21.70;33.20;;;;;;499265;237;2147;-72
2021/03/01 11:23:54;;;;;;;;;;;21.50;33.30;;;;;;499269;237;1146;-72
2021/03/01 11:25:56;;;;;;;;;;;21.50;33.30;;;;;;499197;237;1103;-72
2021/03/01 11:27:57;;;;;;;;;;;21.30;33.40;;;;;;499369;237;1057;-72
2021/03/01 11:30:00;;;;;;;;;;;21.10;33.50;;;;;;499274;237;1082;-72
2021/03/01 11:32:00;;;;;;;;;;;21.00;33.60;;;;;;499174;237;1417;-72
2021/03/01 11:34:01;;;;;;;;;;;20.90;33.60;;;;;;499157;237;1002;-73
2021/03/01 11:36:02;;;;;;;;;;;20.80;33.80;;;;;;499192;237;997;-73
2021/03/01 11:38:04;;;;;;;;;;;20.70;33.70;;;;;;499415;237;1210;-72
2021/03/01 11:40:05;;;;;;;;;;;20.60;33.80;;;;;;499519;237;963;-73
2021/03/01 11:42:07;;;;;;;;;;;20.60;33.80;;;;;;499494;237;2156;-73
2021/03/01 11:44:08;;;;;;;;;;;20.50;33.70;;;;;;499513;237;1054;-73
2021/03/01 11:46:09;;;;;;;;;;;20.40;33.70;;;;;;499436;237;1029;-73
2021/03/01 11:48:13;;;;;;;;;;;20.40;33.70;;;;;;499046;237;1020;-73
2021/03/01 11:50:12;;;;;;;;;;;20.40;33.90;;;;;;498825;237;1436;-72
2021/03/01 11:52:13;;;;;;;;;;;20.30;33.80;;;;;;499115;237;1284;-72
2021/03/01 11:54:14;;;;;;;;;;;20.30;33.80;;;;;;499317;237;1102;-73
2021/03/01 11:56:16;;;;;;;;;;;20.30;33.80;;;;;;499398;237;1178;-72
2021/03/01 11:58:17;;;;;;;;;;;20.30;33.70;;;;;;499428;237;1033;-72